createdAt,value
2023-03-10T00:01:09.807Z,98.30
2023-03-10T00:03:36.781Z,98.40
2023-03-10T00:06:03.522Z,98.20
2023-03-10T00:08:30.252Z,98.60
2023-03-10T00:10:56.904Z,99.00
2023-03-10T00:13:23.568Z,99.50
2023-03-10T00:15:50.273Z,99.20
2023-03-10T00:18:16.962Z,98.80
2023-03-10T00:20:43.616Z,98.40
2023-03-10T00:23:10.259Z,97.70
2023-03-10T00:25:36.910Z,97.90
2023-03-10T00:28:03.584Z,99.80
2023-03-10T00:30:32.619Z,99.90
2023-03-10T00:32:59.683Z,99.80
2023-03-10T00:35:26.377Z,99.70
2023-03-10T00:37:53.354Z,99.90
2023-03-10T00:40:20.115Z,99.90
2023-03-10T00:42:46.932Z,99.90
2023-03-10T00:45:13.637Z,99.90
2023-03-10T00:47:40.358Z,99.90
2023-03-10T00:50:07.185Z,99.90
2023-03-10T00:52:33.955Z,99.90
2023-03-10T00:55:00.648Z,99.90
2023-03-10T00:57:27.342Z,99.90
2023-03-10T00:59:54.000Z,99.90
2023-03-10T01:02:20.800Z,99.90
2023-03-10T01:04:47.854Z,99.90
2023-03-10T01:07:14.547Z,99.90
2023-03-10T01:09:41.289Z,99.90
2023-03-10T01:12:08.146Z,99.90
2023-03-10T01:14:34.823Z,99.90
2023-03-10T01:17:01.507Z,99.80
2023-03-10T01:19:28.156Z,99.20
2023-03-10T01:21:54.789Z,99.50
2023-03-10T01:24:21.457Z,99.80
2023-03-10T01:26:48.118Z,99.90
2023-03-10T01:29:14.761Z,99.90
2023-03-10T01:31:42.099Z,99.90
2023-03-10T01:34:09.050Z,99.90
2023-03-10T01:36:35.707Z,99.90
2023-03-10T01:39:02.360Z,99.90
2023-03-10T01:41:29.072Z,99.90
2023-03-10T01:43:56.452Z,99.90
2023-03-10T01:46:29.369Z,99.90
2023-03-10T01:48:57.266Z,99.90
2023-03-10T01:51:24.503Z,99.90
2023-03-10T01:53:51.682Z,99.90
2023-03-10T01:56:18.382Z,99.90
2023-03-10T01:58:46.158Z,99.90
2023-03-10T02:01:13.721Z,99.90
2023-03-10T02:03:49.955Z,99.90
2023-03-10T02:06:19.345Z,99.90
2023-03-10T02:08:48.974Z,99.90
2023-03-10T02:11:15.689Z,99.90
2023-03-10T02:13:42.410Z,99.90
2023-03-10T02:16:09.325Z,99.90
2023-03-10T02:18:36.060Z,99.90
2023-03-10T02:21:14.104Z,99.90
2023-03-10T02:23:58.822Z,99.90
2023-03-10T02:26:36.066Z,99.90
2023-03-10T02:29:04.868Z,99.90
2023-03-10T02:31:31.748Z,99.90
2023-03-10T02:33:58.554Z,99.90
2023-03-10T02:36:25.487Z,99.90
2023-03-10T02:38:52.358Z,99.90
2023-03-10T02:41:30.692Z,99.90
2023-03-10T02:43:58.134Z,99.90
2023-03-10T02:46:24.785Z,99.90
2023-03-10T02:48:51.756Z,99.90
2023-03-10T02:51:20.126Z,99.90
2023-03-10T02:53:46.817Z,99.90
2023-03-10T02:56:13.470Z,99.90
2023-03-10T02:58:40.155Z,99.90
2023-03-10T03:01:06.844Z,99.90
2023-03-10T03:03:34.048Z,99.90
2023-03-10T03:06:00.933Z,99.90
2023-03-10T03:08:27.955Z,99.90
2023-03-10T03:10:54.953Z,99.90
2023-03-10T03:13:21.609Z,99.90
2023-03-10T03:15:48.796Z,99.90
2023-03-10T03:18:15.672Z,99.90
2023-03-10T03:20:42.586Z,99.90
2023-03-10T03:23:09.404Z,99.90
2023-03-10T03:25:37.573Z,99.90
2023-03-10T03:28:05.336Z,99.90
2023-03-10T03:30:31.990Z,99.90
2023-03-10T03:32:58.762Z,99.90
2023-03-10T03:35:27.748Z,99.90
2023-03-10T03:37:54.993Z,99.90
2023-03-10T03:40:22.294Z,99.90
2023-03-10T03:42:50.049Z,99.90
2023-03-10T03:45:18.110Z,99.90
2023-03-10T03:47:45.090Z,99.90
2023-03-10T03:50:13.163Z,99.90
2023-03-10T03:52:40.611Z,99.90
2023-03-10T03:55:07.953Z,99.90
2023-03-10T03:57:34.612Z,99.90
2023-03-10T04:00:01.611Z,99.90
2023-03-10T04:02:28.689Z,99.90
2023-03-10T04:04:55.639Z,99.90
2023-03-10T04:07:22.324Z,99.90
2023-03-10T04:09:49.241Z,99.90
2023-03-10T04:12:15.892Z,99.90
2023-03-10T04:14:42.554Z,99.90
2023-03-10T04:17:11.835Z,99.90
2023-03-10T04:19:38.869Z,99.90
2023-03-10T04:22:05.555Z,99.90
2023-03-10T04:24:32.245Z,99.90
2023-03-10T04:26:58.947Z,99.90
2023-03-10T04:29:27.529Z,99.90
2023-03-10T04:32:04.829Z,99.90
2023-03-10T04:34:32.115Z,99.90
2023-03-10T04:36:58.752Z,99.90
2023-03-10T04:39:25.394Z,99.90
2023-03-10T04:41:52.215Z,99.90
2023-03-10T04:44:30.470Z,99.90
2023-03-10T04:46:57.902Z,99.90
2023-03-10T04:49:24.698Z,99.90
2023-03-10T04:51:51.346Z,99.90
2023-03-10T04:54:18.184Z,99.90
2023-03-10T04:56:44.845Z,99.90
2023-03-10T04:59:11.531Z,99.90
2023-03-10T05:01:38.225Z,99.90
2023-03-10T05:04:05.363Z,99.90
2023-03-10T05:06:32.077Z,99.90
2023-03-10T05:08:58.735Z,99.90
2023-03-10T05:11:25.376Z,99.90
2023-03-10T05:13:52.054Z,99.90
2023-03-10T05:16:20.083Z,99.90
2023-03-10T05:18:46.974Z,99.90
2023-03-10T05:21:14.042Z,99.90
2023-03-10T05:23:40.765Z,99.90
2023-03-10T05:26:08.859Z,99.90
2023-03-10T05:28:35.530Z,99.90
2023-03-10T05:31:07.545Z,99.90
2023-03-10T05:33:34.201Z,99.90
2023-03-10T05:36:03.785Z,99.90
2023-03-10T05:38:30.439Z,99.90
2023-03-10T05:40:57.109Z,99.90
2023-03-10T05:43:23.786Z,99.90
2023-03-10T05:45:57.309Z,99.90
2023-03-10T05:48:24.166Z,99.90
2023-03-10T05:51:00.211Z,99.90
2023-03-10T05:53:27.122Z,99.90
2023-03-10T05:55:54.337Z,99.90
2023-03-10T05:58:21.003Z,99.90
2023-03-10T06:00:47.652Z,99.90
2023-03-10T06:03:14.414Z,99.90
2023-03-10T06:05:41.165Z,99.90
2023-03-10T06:08:07.841Z,99.90
2023-03-10T06:10:34.626Z,99.90
2023-03-10T06:13:01.441Z,99.90
2023-03-10T06:15:28.129Z,99.90
2023-03-10T06:17:54.809Z,99.90
2023-03-10T06:20:21.568Z,99.90
2023-03-10T06:22:48.341Z,99.90
2023-03-10T06:25:15.050Z,99.90
2023-03-10T06:27:41.752Z,99.90
2023-03-10T06:30:08.647Z,99.90
2023-03-10T06:32:35.416Z,99.90
2023-03-10T06:35:02.122Z,99.90
2023-03-10T06:37:28.753Z,99.90
2023-03-10T06:39:55.451Z,99.90
2023-03-10T06:42:22.106Z,99.90
2023-03-10T06:44:49.494Z,99.90
2023-03-10T06:47:16.162Z,99.90
2023-03-10T06:49:42.815Z,99.90
2023-03-10T06:52:09.502Z,99.90
2023-03-10T06:54:36.548Z,99.90
2023-03-10T06:57:04.399Z,99.90
2023-03-10T06:59:31.834Z,99.90
2023-03-10T07:01:58.514Z,99.90
2023-03-10T07:04:25.208Z,99.90
2023-03-10T07:06:51.993Z,99.90
2023-03-10T07:09:18.668Z,99.90
2023-03-10T07:11:45.345Z,99.90
2023-03-10T07:14:12.029Z,99.90
2023-03-10T07:16:39.536Z,99.90
2023-03-10T07:19:06.371Z,99.90
2023-03-10T07:21:33.141Z,99.90
2023-03-10T07:23:59.819Z,99.90
2023-03-10T07:26:26.626Z,99.90
2023-03-10T07:28:54.320Z,99.90
2023-03-10T07:31:21.377Z,99.90
2023-03-10T07:33:49.377Z,99.90
2023-03-10T07:36:17.289Z,99.90
2023-03-10T07:38:44.358Z,99.90
2023-03-10T07:41:13.483Z,99.90
2023-03-10T07:43:40.259Z,99.90
2023-03-10T07:46:08.193Z,99.90
2023-03-10T07:48:35.164Z,99.90
2023-03-10T07:51:01.970Z,99.90
2023-03-10T07:53:28.991Z,99.90
2023-03-10T07:55:56.113Z,99.90
2023-03-10T07:58:22.998Z,99.90
2023-03-10T08:00:58.164Z,99.90
2023-03-10T08:03:25.803Z,99.90
2023-03-10T08:05:52.542Z,99.90
2023-03-10T08:08:19.257Z,99.90
2023-03-10T08:10:46.083Z,99.90
2023-03-10T08:13:13.279Z,99.90
2023-03-10T08:15:40.491Z,99.90
2023-03-10T08:18:07.929Z,99.90
2023-03-10T08:20:35.888Z,99.90
2023-03-10T08:23:27.398Z,99.90
2023-03-10T08:25:54.075Z,99.90
2023-03-10T08:28:20.786Z,99.90
2023-03-10T08:31:03.092Z,99.90
2023-03-10T08:33:30.937Z,99.00
2023-03-10T08:36:02.105Z,99.90
2023-03-10T08:38:28.851Z,98.30
2023-03-10T08:40:55.721Z,97.30
2023-03-10T08:43:22.379Z,96.80
2023-03-10T08:45:49.072Z,97.30
2023-03-10T08:48:15.785Z,97.50
2023-03-10T08:50:42.468Z,96.50
2023-03-10T08:53:09.125Z,96.60
2023-03-10T08:55:35.797Z,95.70
2023-03-10T08:58:07.453Z,94.30
2023-03-10T09:00:34.242Z,95.10
2023-03-10T09:03:01.011Z,94.30
2023-03-10T09:05:28.242Z,95.00
2023-03-10T09:07:55.155Z,94.20
2023-03-10T09:10:21.912Z,93.50
2023-03-10T09:12:48.679Z,93.40
2023-03-10T09:15:15.349Z,93.60
2023-03-10T09:17:42.045Z,93.50
2023-03-10T09:20:09.301Z,92.60
2023-03-10T09:22:35.959Z,92.70
2023-03-10T09:25:02.647Z,92.30
2023-03-10T09:27:29.290Z,92.70
2023-03-10T09:29:56.391Z,92.80
2023-03-10T09:32:24.228Z,92.60
2023-03-10T09:34:51.021Z,92.50
2023-03-10T09:37:17.807Z,92.40
2023-03-10T09:39:44.482Z,92.40
2023-03-10T09:42:14.839Z,92.20
2023-03-10T09:45:00.448Z,91.80
2023-03-10T09:47:27.725Z,91.10
2023-03-10T09:49:54.353Z,91.10
2023-03-10T09:52:28.122Z,91.40
2023-03-10T09:55:01.760Z,91.70
2023-03-10T09:57:29.229Z,91.80
2023-03-10T09:59:58.041Z,91.40
2023-03-10T10:02:44.228Z,91.20
2023-03-10T10:05:18.287Z,91.70
2023-03-10T10:07:54.867Z,90.60
2023-03-10T10:10:26.036Z,90.50
2023-03-10T10:12:54.678Z,90.40
2023-03-10T10:15:26.782Z,90.10
2023-03-10T10:18:05.518Z,90.00
2023-03-10T10:20:40.358Z,90.10
2023-03-10T10:23:15.317Z,88.80
2023-03-10T10:25:42.527Z,88.00
2023-03-10T10:28:16.529Z,89.60
2023-03-10T10:30:43.404Z,88.80
2023-03-10T10:33:11.345Z,86.50
2023-03-10T10:35:46.401Z,87.90
2023-03-10T10:38:16.098Z,85.90
2023-03-10T10:41:02.086Z,85.40
2023-03-10T10:43:29.448Z,86.40
2023-03-10T10:45:57.549Z,85.40
2023-03-10T10:48:35.214Z,86.10
2023-03-10T10:51:02.334Z,85.00
2023-03-10T10:53:34.429Z,82.40
2023-03-10T10:56:13.367Z,84.40
2023-03-10T10:58:41.126Z,83.00
2023-03-10T11:01:09.114Z,81.10
2023-03-10T11:03:37.393Z,82.30
2023-03-10T11:06:14.635Z,82.50
2023-03-10T11:12:53.588Z,79.60
2023-03-10T11:18:52.258Z,80.00
2023-03-10T11:21:23.364Z,80.60
2023-03-10T11:27:30.000Z,81.40
2023-03-10T11:30:12.777Z,81.00
2023-03-10T11:39:48.500Z,78.40
2023-03-10T11:42:27.455Z,78.50
2023-03-10T11:44:58.895Z,76.10
2023-03-10T11:50:56.117Z,75.40
2023-03-10T11:59:44.050Z,75.00
2023-03-10T12:02:15.529Z,75.60
2023-03-10T12:04:59.117Z,74.80
2023-03-10T12:07:39.206Z,73.10
2023-03-10T12:13:48.314Z,70.80
2023-03-10T12:23:04.706Z,70.10
2023-03-10T12:25:33.179Z,70.90
2023-03-10T12:35:12.806Z,71.90
2023-03-10T12:37:48.630Z,71.90
2023-03-10T12:47:51.841Z,72.50
2023-03-10T12:54:14.266Z,71.20
2023-03-10T12:56:48.678Z,70.50
2023-03-10T12:59:41.453Z,69.50
2023-03-10T13:02:31.566Z,68.00
2023-03-10T13:05:04.339Z,65.70
2023-03-10T13:07:31.382Z,67.60
2023-03-10T13:09:59.087Z,68.20
2023-03-10T13:12:46.048Z,67.00
2023-03-10T13:15:20.292Z,69.50
2023-03-10T13:17:46.992Z,67.50
2023-03-10T13:20:17.689Z,64.20
2023-03-10T13:22:54.825Z,67.00
2023-03-10T13:25:21.877Z,66.20
2023-03-10T13:27:48.725Z,65.60
2023-03-10T13:30:20.226Z,65.10
2023-03-10T13:32:53.456Z,66.60
2023-03-10T13:35:31.182Z,66.10
2023-03-10T13:38:04.304Z,64.20
2023-03-10T13:40:30.965Z,63.90
2023-03-10T13:42:57.749Z,64.10
2023-03-10T13:45:25.239Z,65.10
2023-03-10T13:47:52.426Z,65.00
2023-03-10T13:50:19.478Z,67.00
2023-03-10T13:52:57.785Z,66.90
2023-03-10T14:02:47.996Z,65.80
2023-03-10T14:08:46.270Z,64.50
2023-03-10T14:15:02.969Z,65.90
2023-03-10T14:28:12.822Z,66.70
2023-03-10T14:30:41.155Z,68.90
2023-03-10T15:22:46.111Z,90.70
2023-03-10T15:28:54.830Z,94.00
2023-03-10T15:31:21.547Z,95.80
2023-03-10T15:33:48.267Z,96.70
2023-03-10T15:36:15.247Z,98.60
2023-03-10T15:38:42.087Z,99.90
2023-03-10T15:48:15.427Z,99.90
2023-03-10T16:04:49.406Z,99.90
2023-03-10T16:07:17.415Z,99.90
2023-03-10T16:09:44.197Z,99.90
2023-03-10T16:12:10.989Z,99.90
2023-03-10T16:21:53.681Z,99.90
2023-03-10T16:24:32.800Z,99.90
2023-03-10T16:27:00.132Z,99.90
2023-03-10T16:29:26.867Z,99.90
2023-03-10T16:31:54.226Z,99.90
2023-03-10T16:34:21.154Z,99.90
2023-03-10T16:36:48.922Z,99.90
2023-03-10T16:39:17.878Z,99.90
2023-03-10T16:41:44.874Z,99.90
2023-03-10T16:44:12.823Z,99.90
2023-03-10T16:46:43.719Z,99.90
2023-03-10T16:49:13.033Z,99.90
2023-03-10T16:52:07.929Z,99.90
2023-03-10T16:58:02.805Z,99.90
2023-03-10T17:00:29.823Z,99.90
2023-03-10T17:02:56.883Z,99.90
2023-03-10T17:12:26.500Z,99.90
2023-03-10T17:18:19.402Z,99.90
2023-03-10T17:20:46.211Z,99.90
2023-03-10T17:23:12.989Z,99.90
2023-03-10T17:25:42.210Z,99.90
2023-03-10T17:31:31.415Z,99.90
2023-03-10T17:34:02.446Z,99.90
2023-03-10T17:36:29.299Z,99.90
2023-03-10T17:52:59.370Z,99.90
2023-03-10T17:55:26.456Z,99.90
2023-03-10T17:57:53.135Z,99.90
2023-03-10T18:04:08.476Z,99.90
2023-03-10T18:06:35.934Z,99.90
2023-03-10T18:09:06.409Z,99.90
2023-03-10T18:11:33.146Z,99.90
2023-03-10T18:14:03.375Z,99.90
2023-03-10T18:16:31.398Z,99.90
2023-03-10T18:18:59.397Z,99.90
2023-03-10T18:21:46.304Z,99.90
2023-03-10T18:24:37.710Z,99.90
2023-03-10T18:27:04.963Z,99.90
2023-03-10T18:29:39.887Z,99.90
2023-03-10T18:34:58.354Z,99.90
2023-03-10T18:37:26.193Z,99.90
2023-03-10T18:39:52.981Z,99.90
2023-03-10T18:42:21.860Z,99.90
2023-03-10T18:44:48.560Z,99.90
2023-03-10T18:47:15.233Z,99.90
2023-03-10T18:49:42.638Z,99.90
2023-03-10T18:52:09.690Z,99.90
2023-03-10T18:54:36.483Z,99.90
2023-03-10T18:57:04.871Z,99.90
2023-03-10T18:59:32.531Z,99.90
2023-03-10T19:02:00.249Z,99.90
2023-03-10T19:04:27.214Z,99.90
2023-03-10T19:06:55.403Z,99.90
2023-03-10T19:09:26.267Z,99.90
2023-03-10T19:11:54.364Z,99.90
2023-03-10T19:14:21.244Z,99.90
2023-03-10T19:16:50.135Z,99.90
2023-03-10T19:19:17.721Z,99.90
2023-03-10T19:21:44.539Z,99.90
2023-03-10T19:24:11.241Z,99.90
2023-03-10T19:26:38.500Z,99.90
2023-03-10T19:29:05.571Z,99.90
2023-03-10T19:31:32.738Z,99.90
2023-03-10T19:33:59.670Z,99.90
2023-03-10T19:36:27.075Z,99.90
2023-03-10T19:39:01.124Z,99.90
2023-03-10T19:41:27.982Z,99.90
2023-03-10T19:43:54.811Z,99.90
2023-03-10T19:46:21.700Z,99.90
2023-03-10T19:48:48.678Z,99.90
2023-03-10T19:51:20.511Z,99.90
2023-03-10T19:53:47.305Z,99.90
2023-03-10T19:56:15.570Z,99.90
2023-03-10T19:58:42.463Z,99.90
2023-03-10T20:01:20.023Z,99.90
2023-03-10T20:03:46.910Z,99.90
2023-03-10T20:06:13.662Z,99.90
2023-03-10T20:08:40.389Z,99.90
2023-03-10T20:11:07.399Z,99.90
2023-03-10T20:13:38.498Z,99.90
2023-03-10T20:16:05.507Z,99.90
2023-03-10T20:18:32.403Z,99.90
2023-03-10T20:21:01.390Z,99.90
2023-03-10T20:23:28.464Z,99.90
2023-03-10T20:26:08.586Z,99.90
2023-03-10T20:28:35.978Z,99.90
2023-03-10T20:31:02.935Z,99.90
2023-03-10T20:33:30.625Z,99.90
2023-03-10T20:35:57.603Z,99.90
2023-03-10T20:38:24.764Z,99.90
2023-03-10T20:46:13.162Z,99.90
2023-03-10T20:48:43.275Z,99.90
2023-03-10T21:18:17.437Z,99.90
2023-03-10T21:20:44.230Z,99.90
2023-03-10T21:23:11.023Z,99.90
2023-03-10T21:25:37.821Z,99.90
2023-03-10T21:28:04.534Z,99.90
2023-03-10T21:30:32.078Z,99.90
2023-03-10T21:32:59.320Z,99.90
2023-03-10T21:35:26.932Z,99.90
2023-03-10T21:37:55.560Z,99.90
2023-03-10T21:40:24.361Z,99.90
2023-03-10T21:42:51.148Z,99.90
2023-03-10T21:45:19.637Z,99.90
2023-03-10T21:47:46.353Z,99.90
2023-03-10T21:50:13.724Z,99.90
2023-03-10T21:52:40.794Z,99.90
2023-03-10T21:55:08.641Z,99.90
2023-03-10T21:57:35.359Z,99.90
2023-03-10T22:00:02.034Z,99.90
2023-03-10T22:02:30.070Z,99.90
2023-03-10T22:04:57.158Z,99.90
2023-03-10T22:07:24.095Z,99.90
2023-03-10T22:09:50.816Z,99.90
2023-03-10T22:12:18.613Z,99.90
2023-03-10T22:14:45.712Z,99.90
2023-03-10T22:17:12.388Z,99.90
2023-03-10T22:19:39.154Z,99.90
2023-03-10T22:22:05.945Z,99.90
2023-03-10T22:24:33.327Z,99.90
2023-03-10T22:27:00.108Z,99.90
2023-03-10T22:29:26.856Z,99.90
2023-03-10T22:31:56.168Z,99.90
2023-03-10T22:34:23.060Z,99.90
2023-03-10T22:36:49.763Z,99.90
2023-03-10T22:39:16.502Z,99.90
2023-03-10T22:41:43.435Z,99.90
2023-03-10T22:44:10.154Z,99.90
2023-03-10T22:46:36.974Z,99.90
2023-03-10T22:49:04.672Z,99.90
2023-03-10T22:51:31.403Z,99.90
2023-03-10T22:53:58.064Z,99.90
2023-03-10T22:56:24.784Z,99.90
2023-03-10T22:58:51.546Z,99.90
2023-03-10T23:01:18.295Z,99.90
2023-03-10T23:03:45.065Z,99.90
2023-03-10T23:06:13.582Z,99.90
2023-03-10T23:08:41.716Z,99.90
2023-03-10T23:11:12.376Z,99.90
2023-03-10T23:13:39.640Z,99.90
2023-03-10T23:16:07.268Z,99.90
2023-03-10T23:18:34.249Z,99.90
2023-03-10T23:21:01.433Z,99.90
2023-03-10T23:23:28.226Z,99.90
2023-03-10T23:25:55.039Z,99.90
2023-03-10T23:28:21.906Z,99.90
2023-03-10T23:30:49.412Z,99.90
2023-03-10T23:33:17.726Z,99.90
2023-03-10T23:35:46.356Z,99.90
2023-03-10T23:38:13.177Z,99.90
2023-03-10T23:40:39.867Z,99.90
2023-03-10T23:43:06.988Z,99.90
2023-03-10T23:45:35.488Z,99.90
2023-03-10T23:48:02.630Z,99.90
2023-03-10T23:50:31.035Z,99.90
2023-03-10T23:52:57.798Z,99.90
2023-03-10T23:55:27.102Z,99.90
2023-03-10T23:57:54.009Z,99.90
